Terminal Aerodrome Forecast
Issued by NWS Cleveland, OH

Home | Current Version | Previous Version | Graphics & Text | Print | Product List | Glossary On
Versions: 1 2 3 4 5 6 7 8 9 10 11 12 13 14 15 16 17 18 19 20 21 22 23 24
346
FTUS41 KCLE 100935 AAA
TAFCAK
TAF AMD
KCAK 100935Z 1010/1106 25012KT 6SM -SHSN OVC015
     FM101500 25012KT 5SM -SHSN OVC020
     FM101800 27012KT 2SM -SN OVC015
     FM110200 27012KT 6SM -SHSN OVC030=

USA.gov is the U.S. government's official web portal to all federal, state and local government web resources and services.